<?xml version="1.0" encoding="UTF-8" standalone="no" ?>
<gpx xmlns="http://www.topografix.com/GPX/1/1" xmlns:xsi="http://www.w3.org/2001/XMLSchema-instance" xsi:schemaLocation="http://www.topografix.com/GPX/1/1 http://www.topografix.com/GPX/1/1/gpx.xsd" version="1.1" creator="VisuGPX - https://www.visugpx.com">
  <metadata>
    <name>boucle hivernale vers le sara</name>
    <desc><![CDATA[pour une sortie  en boucle à demi journée sans problème]]></desc>
  </metadata>
  <trk>
    <name><![CDATA[04-JAN-16 04-25-40 PM]]></name>
    <trkseg>
      <trkpt lat="44.86841" lon="4.25092">
        <ele>842.73</ele>
        <time>2016-01-04T12:59:30Z</time>
      </trkpt>
      <trkpt lat="44.86849" lon="4.25073">
        <ele>839.85</ele>
        <time>2016-01-04T12:59:52Z</time>
      </trkpt>
      <trkpt lat="44.86849" lon="4.25076">
        <ele>837.93</ele>
        <time>2016-01-04T13:00:19Z</time>
      </trkpt>
      <trkpt lat="44.86852" lon="4.25056">
        <ele>837.45</ele>
        <time>2016-01-04T13:00:53Z</time>
      </trkpt>
      <trkpt lat="44.8685" lon="4.25037">
        <ele>834.56</ele>
        <time>2016-01-04T13:01:09Z</time>
      </trkpt>
      <trkpt lat="44.86849" lon="4.2502">
        <ele>834.08</ele>
        <time>2016-01-04T13:01:26Z</time>
      </trkpt>
      <trkpt lat="44.86851" lon="4.24999">
        <ele>832.16</ele>
        <time>2016-01-04T13:01:45Z</time>
      </trkpt>
      <trkpt lat="44.86856" lon="4.24977">
        <ele>828.79</ele>
        <time>2016-01-04T13:02:03Z</time>
      </trkpt>
      <trkpt lat="44.86857" lon="4.24959">
        <ele>828.31</ele>
        <time>2016-01-04T13:02:16Z</time>
      </trkpt>
      <trkpt lat="44.86862" lon="4.24939">
        <ele>825.91</ele>
        <time>2016-01-04T13:02:32Z</time>
      </trkpt>
      <trkpt lat="44.86868" lon="4.24924">
        <ele>824.95</ele>
        <time>2016-01-04T13:02:45Z</time>
      </trkpt>
      <trkpt lat="44.86874" lon="4.24906">
        <ele>824.47</ele>
        <time>2016-01-04T13:03:00Z</time>
      </trkpt>
      <trkpt lat="44.86875" lon="4.24887">
        <ele>824.47</ele>
        <time>2016-01-04T13:03:14Z</time>
      </trkpt>
      <trkpt lat="44.86876" lon="4.24872">
        <ele>828.31</ele>
        <time>2016-01-04T13:03:30Z</time>
      </trkpt>
      <trkpt lat="44.8687" lon="4.24872">
        <ele>826.39</ele>
        <time>2016-01-04T13:03:43Z</time>
      </trkpt>
      <trkpt lat="44.86863" lon="4.24873">
        <ele>824.95</ele>
        <time>2016-01-04T13:03:52Z</time>
      </trkpt>
      <trkpt lat="44.86855" lon="4.24863">
        <ele>827.35</ele>
        <time>2016-01-04T13:04:08Z</time>
      </trkpt>
      <trkpt lat="44.86847" lon="4.24852">
        <ele>828.31</ele>
        <time>2016-01-04T13:04:24Z</time>
      </trkpt>
      <trkpt lat="44.8684" lon="4.24843">
        <ele>830.24</ele>
        <time>2016-01-04T13:04:37Z</time>
      </trkpt>
      <trkpt lat="44.86839" lon="4.24842">
        <ele>830.72</ele>
        <time>2016-01-04T13:04:38Z</time>
      </trkpt>
      <trkpt lat="44.8683" lon="4.24829">
        <ele>833.12</ele>
        <time>2016-01-04T13:04:53Z</time>
      </trkpt>
      <trkpt lat="44.86821" lon="4.24818">
        <ele>834.08</ele>
        <time>2016-01-04T13:05:09Z</time>
      </trkpt>
      <trkpt lat="44.8682" lon="4.24816">
        <ele>833.6</ele>
        <time>2016-01-04T13:05:21Z</time>
      </trkpt>
      <trkpt lat="44.86815" lon="4.24808">
        <ele>832.16</ele>
        <time>2016-01-04T13:05:38Z</time>
      </trkpt>
      <trkpt lat="44.86805" lon="4.24796">
        <ele>834.08</ele>
        <time>2016-01-04T13:05:54Z</time>
      </trkpt>
      <trkpt lat="44.86802" lon="4.24782">
        <ele>836</ele>
        <time>2016-01-04T13:06:11Z</time>
      </trkpt>
      <trkpt lat="44.86803" lon="4.24774">
        <ele>834.56</ele>
        <time>2016-01-04T13:06:29Z</time>
      </trkpt>
      <trkpt lat="44.86799" lon="4.24754">
        <ele>833.12</ele>
        <time>2016-01-04T13:06:45Z</time>
      </trkpt>
      <trkpt lat="44.86793" lon="4.24734">
        <ele>837.45</ele>
        <time>2016-01-04T13:07:03Z</time>
      </trkpt>
      <trkpt lat="44.86791" lon="4.24717">
        <ele>839.85</ele>
        <time>2016-01-04T13:07:23Z</time>
      </trkpt>
      <trkpt lat="44.86784" lon="4.24697">
        <ele>843.21</ele>
        <time>2016-01-04T13:07:41Z</time>
      </trkpt>
      <trkpt lat="44.86778" lon="4.24683">
        <ele>846.58</ele>
        <time>2016-01-04T13:07:59Z</time>
      </trkpt>
      <trkpt lat="44.86772" lon="4.24655">
        <ele>847.06</ele>
        <time>2016-01-04T13:08:16Z</time>
      </trkpt>
      <trkpt lat="44.86764" lon="4.24631">
        <ele>848.98</ele>
        <time>2016-01-04T13:08:34Z</time>
      </trkpt>
      <trkpt lat="44.86762" lon="4.24618">
        <ele>850.9</ele>
        <time>2016-01-04T13:08:47Z</time>
      </trkpt>
      <trkpt lat="44.86756" lon="4.24604">
        <ele>848.5</ele>
        <time>2016-01-04T13:08:59Z</time>
      </trkpt>
      <trkpt lat="44.86752" lon="4.24594">
        <ele>848.98</ele>
        <time>2016-01-04T13:09:07Z</time>
      </trkpt>
      <trkpt lat="44.86742" lon="4.24571">
        <ele>850.9</ele>
        <time>2016-01-04T13:09:21Z</time>
      </trkpt>
      <trkpt lat="44.86741" lon="4.24563">
        <ele>850.9</ele>
        <time>2016-01-04T13:09:34Z</time>
      </trkpt>
      <trkpt lat="44.86735" lon="4.24551">
        <ele>847.54</ele>
        <time>2016-01-04T13:09:47Z</time>
      </trkpt>
      <trkpt lat="44.86732" lon="4.24538">
        <ele>846.58</ele>
        <time>2016-01-04T13:10:01Z</time>
      </trkpt>
      <trkpt lat="44.86727" lon="4.24525">
        <ele>847.06</ele>
        <time>2016-01-04T13:10:12Z</time>
      </trkpt>
      <trkpt lat="44.86725" lon="4.24505">
        <ele>848.98</ele>
        <time>2016-01-04T13:10:26Z</time>
      </trkpt>
      <trkpt lat="44.86727" lon="4.24501">
        <ele>848.98</ele>
        <time>2016-01-04T13:10:39Z</time>
      </trkpt>
      <trkpt lat="44.86734" lon="4.24494">
        <ele>848.98</ele>
        <time>2016-01-04T13:10:51Z</time>
      </trkpt>
      <trkpt lat="44.86737" lon="4.24482">
        <ele>849.46</ele>
        <time>2016-01-04T13:11:05Z</time>
      </trkpt>
      <trkpt lat="44.8674" lon="4.24475">
        <ele>849.46</ele>
        <time>2016-01-04T13:11:20Z</time>
      </trkpt>
      <trkpt lat="44.86743" lon="4.24468">
        <ele>848.5</ele>
        <time>2016-01-04T13:11:39Z</time>
      </trkpt>
      <trkpt lat="44.86743" lon="4.24465">
        <ele>848.5</ele>
        <time>2016-01-04T13:11:56Z</time>
      </trkpt>
      <trkpt lat="44.86746" lon="4.24461">
        <ele>847.54</ele>
        <time>2016-01-04T13:12:17Z</time>
      </trkpt>
      <trkpt lat="44.86751" lon="4.24456">
        <ele>846.1</ele>
        <time>2016-01-04T13:12:31Z</time>
      </trkpt>
      <trkpt lat="44.86754" lon="4.24452">
        <ele>844.66</ele>
        <time>2016-01-04T13:12:43Z</time>
      </trkpt>
      <trkpt lat="44.86757" lon="4.24447">
        <ele>843.69</ele>
        <time>2016-01-04T13:13:01Z</time>
      </trkpt>
      <trkpt lat="44.86759" lon="4.24443">
        <ele>842.73</ele>
        <time>2016-01-04T13:13:18Z</time>
      </trkpt>
      <trkpt lat="44.86757" lon="4.24436">
        <ele>844.66</ele>
        <time>2016-01-04T13:13:31Z</time>
      </trkpt>
      <trkpt lat="44.86757" lon="4.24434">
        <ele>844.18</ele>
        <time>2016-01-04T13:13:51Z</time>
      </trkpt>
      <trkpt lat="44.86757" lon="4.24429">
        <ele>845.14</ele>
        <time>2016-01-04T13:14:09Z</time>
      </trkpt>
      <trkpt lat="44.86758" lon="4.24421">
        <ele>846.58</ele>
        <time>2016-01-04T13:14:22Z</time>
      </trkpt>
      <trkpt lat="44.86765" lon="4.24411">
        <ele>851.38</ele>
        <time>2016-01-04T13:14:36Z</time>
      </trkpt>
      <trkpt lat="44.86764" lon="4.24403">
        <ele>855.23</ele>
        <time>2016-01-04T13:14:51Z</time>
      </trkpt>
      <trkpt lat="44.86759" lon="4.24405">
        <ele>856.19</ele>
        <time>2016-01-04T13:15:06Z</time>
      </trkpt>
      <trkpt lat="44.86754" lon="4.24406">
        <ele>857.63</ele>
        <time>2016-01-04T13:15:24Z</time>
      </trkpt>
      <trkpt lat="44.86756" lon="4.24399">
        <ele>857.15</ele>
        <time>2016-01-04T13:15:41Z</time>
      </trkpt>
      <trkpt lat="44.86758" lon="4.24387">
        <ele>858.59</ele>
        <time>2016-01-04T13:15:54Z</time>
      </trkpt>
      <trkpt lat="44.86762" lon="4.24378">
        <ele>859.56</ele>
        <time>2016-01-04T13:16:08Z</time>
      </trkpt>
      <trkpt lat="44.86762" lon="4.2437">
        <ele>861.96</ele>
        <time>2016-01-04T13:16:22Z</time>
      </trkpt>
      <trkpt lat="44.86761" lon="4.24366">
        <ele>863.4</ele>
        <time>2016-01-04T13:16:38Z</time>
      </trkpt>
      <trkpt lat="44.86762" lon="4.24367">
        <ele>864.36</ele>
        <time>2016-01-04T13:17:00Z</time>
      </trkpt>
      <trkpt lat="44.86764" lon="4.24364">
        <ele>864.36</ele>
        <time>2016-01-04T13:17:17Z</time>
      </trkpt>
      <trkpt lat="44.86769" lon="4.24351">
        <ele>864.36</ele>
        <time>2016-01-04T13:17:33Z</time>
      </trkpt>
      <trkpt lat="44.86771" lon="4.24343">
        <ele>868.21</ele>
        <time>2016-01-04T13:17:48Z</time>
      </trkpt>
      <trkpt lat="44.86777" lon="4.24333">
        <ele>866.77</ele>
        <time>2016-01-04T13:18:02Z</time>
      </trkpt>
      <trkpt lat="44.86781" lon="4.2432">
        <ele>869.65</ele>
        <time>2016-01-04T13:18:15Z</time>
      </trkpt>
      <trkpt lat="44.86782" lon="4.24306">
        <ele>870.13</ele>
        <time>2016-01-04T13:18:30Z</time>
      </trkpt>
      <trkpt lat="44.8678" lon="4.24292">
        <ele>873.98</ele>
        <time>2016-01-04T13:18:43Z</time>
      </trkpt>
      <trkpt lat="44.8678" lon="4.24278">
        <ele>876.38</ele>
        <time>2016-01-04T13:18:56Z</time>
      </trkpt>
      <trkpt lat="44.8678" lon="4.24276">
        <ele>877.34</ele>
        <time>2016-01-04T13:19:17Z</time>
      </trkpt>
      <trkpt lat="44.86785" lon="4.2427">
        <ele>877.82</ele>
        <time>2016-01-04T13:19:33Z</time>
      </trkpt>
      <trkpt lat="44.86788" lon="4.24263">
        <ele>878.3</ele>
        <time>2016-01-04T13:19:50Z</time>
      </trkpt>
      <trkpt lat="44.86796" lon="4.24247">
        <ele>880.22</ele>
        <time>2016-01-04T13:20:08Z</time>
      </trkpt>
      <trkpt lat="44.868" lon="4.24239">
        <ele>883.11</ele>
        <time>2016-01-04T13:20:22Z</time>
      </trkpt>
      <trkpt lat="44.86802" lon="4.24224">
        <ele>883.11</ele>
        <time>2016-01-04T13:20:37Z</time>
      </trkpt>
      <trkpt lat="44.86803" lon="4.24212">
        <ele>885.03</ele>
        <time>2016-01-04T13:20:52Z</time>
      </trkpt>
      <trkpt lat="44.86806" lon="4.24199">
        <ele>885.03</ele>
        <time>2016-01-04T13:21:07Z</time>
      </trkpt>
      <trkpt lat="44.86804" lon="4.2419">
        <ele>885.51</ele>
        <time>2016-01-04T13:21:25Z</time>
      </trkpt>
      <trkpt lat="44.86801" lon="4.24184">
        <ele>887.43</ele>
        <time>2016-01-04T13:21:40Z</time>
      </trkpt>
      <trkpt lat="44.86789" lon="4.24191">
        <ele>892.24</ele>
        <time>2016-01-04T13:21:55Z</time>
      </trkpt>
      <trkpt lat="44.86783" lon="4.2419">
        <ele>893.2</ele>
        <time>2016-01-04T13:22:06Z</time>
      </trkpt>
      <trkpt lat="44.8678" lon="4.2419">
        <ele>892.72</ele>
        <time>2016-01-04T13:22:23Z</time>
      </trkpt>
      <trkpt lat="44.86772" lon="4.24184">
        <ele>894.64</ele>
        <time>2016-01-04T13:22:38Z</time>
      </trkpt>
      <trkpt lat="44.86764" lon="4.24178">
        <ele>896.57</ele>
        <time>2016-01-04T13:22:51Z</time>
      </trkpt>
      <trkpt lat="44.86752" lon="4.2417">
        <ele>900.41</ele>
        <time>2016-01-04T13:23:08Z</time>
      </trkpt>
      <trkpt lat="44.86743" lon="4.24164">
        <ele>902.82</ele>
        <time>2016-01-04T13:23:22Z</time>
      </trkpt>
      <trkpt lat="44.86732" lon="4.24159">
        <ele>904.26</ele>
        <time>2016-01-04T13:23:37Z</time>
      </trkpt>
      <trkpt lat="44.86722" lon="4.24154">
        <ele>904.26</ele>
        <time>2016-01-04T13:23:50Z</time>
      </trkpt>
      <trkpt lat="44.86722" lon="4.24153">
        <ele>904.74</ele>
        <time>2016-01-04T13:24:12Z</time>
      </trkpt>
      <trkpt lat="44.86718" lon="4.24151">
        <ele>904.26</ele>
        <time>2016-01-04T13:24:27Z</time>
      </trkpt>
      <trkpt lat="44.86715" lon="4.24144">
        <ele>902.33</ele>
        <time>2016-01-04T13:24:41Z</time>
      </trkpt>
      <trkpt lat="44.86711" lon="4.24131">
        <ele>904.26</ele>
        <time>2016-01-04T13:24:57Z</time>
      </trkpt>
      <trkpt lat="44.86708" lon="4.24122">
        <ele>907.62</ele>
        <time>2016-01-04T13:25:12Z</time>
      </trkpt>
      <trkpt lat="44.86708" lon="4.24121">
        <ele>909.06</ele>
        <time>2016-01-04T13:25:30Z</time>
      </trkpt>
      <trkpt lat="44.86708" lon="4.24121">
        <ele>908.58</ele>
        <time>2016-01-04T13:25:52Z</time>
      </trkpt>
      <trkpt lat="44.86709" lon="4.2412">
        <ele>908.1</ele>
        <time>2016-01-04T13:26:17Z</time>
      </trkpt>
      <trkpt lat="44.86706" lon="4.24114">
        <ele>908.1</ele>
        <time>2016-01-04T13:26:29Z</time>
      </trkpt>
      <trkpt lat="44.86701" lon="4.24106">
        <ele>909.06</ele>
        <time>2016-01-04T13:26:44Z</time>
      </trkpt>
      <trkpt lat="44.867" lon="4.24103">
        <ele>910.51</ele>
        <time>2016-01-04T13:27:05Z</time>
      </trkpt>
      <trkpt lat="44.86699" lon="4.24104">
        <ele>911.95</ele>
        <time>2016-01-04T13:27:29Z</time>
      </trkpt>
      <trkpt lat="44.86699" lon="4.24104">
        <ele>913.39</ele>
        <time>2016-01-04T13:27:53Z</time>
      </trkpt>
      <trkpt lat="44.86698" lon="4.24102">
        <ele>913.87</ele>
        <time>2016-01-04T13:28:14Z</time>
      </trkpt>
      <trkpt lat="44.86699" lon="4.24102">
        <ele>913.39</ele>
        <time>2016-01-04T13:28:35Z</time>
      </trkpt>
      <trkpt lat="44.86699" lon="4.24102">
        <ele>912.43</ele>
        <time>2016-01-04T13:28:48Z</time>
      </trkpt>
      <trkpt lat="44.867" lon="4.24102">
        <ele>912.91</ele>
        <time>2016-01-04T13:29:21Z</time>
      </trkpt>
      <trkpt lat="44.86701" lon="4.241">
        <ele>914.35</ele>
        <time>2016-01-04T13:29:43Z</time>
      </trkpt>
      <trkpt lat="44.86701" lon="4.24099">
        <ele>914.35</ele>
        <time>2016-01-04T13:29:45Z</time>
      </trkpt>
      <trkpt lat="44.86704" lon="4.24094">
        <ele>914.35</ele>
        <time>2016-01-04T13:29:55Z</time>
      </trkpt>
      <trkpt lat="44.86709" lon="4.24087">
        <ele>914.35</ele>
        <time>2016-01-04T13:30:07Z</time>
      </trkpt>
      <trkpt lat="44.86719" lon="4.24081">
        <ele>914.35</ele>
        <time>2016-01-04T13:30:20Z</time>
      </trkpt>
      <trkpt lat="44.86728" lon="4.24077">
        <ele>915.79</ele>
        <time>2016-01-04T13:30:30Z</time>
      </trkpt>
      <trkpt lat="44.86736" lon="4.24072">
        <ele>917.24</ele>
        <time>2016-01-04T13:30:48Z</time>
      </trkpt>
      <trkpt lat="44.86743" lon="4.24069">
        <ele>918.2</ele>
        <time>2016-01-04T13:31:01Z</time>
      </trkpt>
      <trkpt lat="44.86748" lon="4.24066">
        <ele>917.72</ele>
        <time>2016-01-04T13:31:14Z</time>
      </trkpt>
      <trkpt lat="44.86759" lon="4.24055">
        <ele>918.2</ele>
        <time>2016-01-04T13:31:29Z</time>
      </trkpt>
      <trkpt lat="44.86768" lon="4.24041">
        <ele>919.16</ele>
        <time>2016-01-04T13:31:45Z</time>
      </trkpt>
      <trkpt lat="44.86775" lon="4.24028">
        <ele>921.08</ele>
        <time>2016-01-04T13:32:07Z</time>
      </trkpt>
      <trkpt lat="44.86787" lon="4.24017">
        <ele>921.08</ele>
        <time>2016-01-04T13:32:27Z</time>
      </trkpt>
      <trkpt lat="44.86797" lon="4.23993">
        <ele>927.33</ele>
        <time>2016-01-04T13:32:44Z</time>
      </trkpt>
      <trkpt lat="44.86798" lon="4.23984">
        <ele>931.17</ele>
        <time>2016-01-04T13:33:00Z</time>
      </trkpt>
      <trkpt lat="44.86797" lon="4.23973">
        <ele>933.58</ele>
        <time>2016-01-04T13:33:14Z</time>
      </trkpt>
      <trkpt lat="44.86797" lon="4.2397">
        <ele>934.06</ele>
        <time>2016-01-04T13:33:30Z</time>
      </trkpt>
      <trkpt lat="44.86796" lon="4.23958">
        <ele>934.06</ele>
        <time>2016-01-04T13:33:44Z</time>
      </trkpt>
      <trkpt lat="44.86797" lon="4.23956">
        <ele>935.02</ele>
        <time>2016-01-04T13:33:58Z</time>
      </trkpt>
      <trkpt lat="44.86797" lon="4.23947">
        <ele>937.42</ele>
        <time>2016-01-04T13:34:17Z</time>
      </trkpt>
      <trkpt lat="44.86799" lon="4.23931">
        <ele>940.31</ele>
        <time>2016-01-04T13:34:36Z</time>
      </trkpt>
      <trkpt lat="44.86802" lon="4.23921">
        <ele>940.79</ele>
        <time>2016-01-04T13:34:51Z</time>
      </trkpt>
      <trkpt lat="44.86803" lon="4.23911">
        <ele>945.11</ele>
        <time>2016-01-04T13:35:07Z</time>
      </trkpt>
      <trkpt lat="44.86808" lon="4.239">
        <ele>948.48</ele>
        <time>2016-01-04T13:35:25Z</time>
      </trkpt>
      <trkpt lat="44.86812" lon="4.23878">
        <ele>952.8</ele>
        <time>2016-01-04T13:35:43Z</time>
      </trkpt>
      <trkpt lat="44.8682" lon="4.23866">
        <ele>951.84</ele>
        <time>2016-01-04T13:36:00Z</time>
      </trkpt>
      <trkpt lat="44.86828" lon="4.23858">
        <ele>951.84</ele>
        <time>2016-01-04T13:36:15Z</time>
      </trkpt>
      <trkpt lat="44.86836" lon="4.23848">
        <ele>956.65</ele>
        <time>2016-01-04T13:36:34Z</time>
      </trkpt>
      <trkpt lat="44.86844" lon="4.23837">
        <ele>963.38</ele>
        <time>2016-01-04T13:36:49Z</time>
      </trkpt>
      <trkpt lat="44.86849" lon="4.23828">
        <ele>965.3</ele>
        <time>2016-01-04T13:37:03Z</time>
      </trkpt>
      <trkpt lat="44.86851" lon="4.23824">
        <ele>966.74</ele>
        <time>2016-01-04T13:37:14Z</time>
      </trkpt>
      <trkpt lat="44.8685" lon="4.23824">
        <ele>969.15</ele>
        <time>2016-01-04T13:37:35Z</time>
      </trkpt>
      <trkpt lat="44.86854" lon="4.23818">
        <ele>967.22</ele>
        <time>2016-01-04T13:37:53Z</time>
      </trkpt>
      <trkpt lat="44.86856" lon="4.23813">
        <ele>965.78</ele>
        <time>2016-01-04T13:38:10Z</time>
      </trkpt>
      <trkpt lat="44.86859" lon="4.238">
        <ele>968.67</ele>
        <time>2016-01-04T13:38:26Z</time>
      </trkpt>
      <trkpt lat="44.86858" lon="4.23788">
        <ele>970.59</ele>
        <time>2016-01-04T13:38:39Z</time>
      </trkpt>
      <trkpt lat="44.86857" lon="4.23777">
        <ele>972.51</ele>
        <time>2016-01-04T13:38:52Z</time>
      </trkpt>
      <trkpt lat="44.86857" lon="4.23769">
        <ele>973.47</ele>
        <time>2016-01-04T13:39:03Z</time>
      </trkpt>
      <trkpt lat="44.86856" lon="4.23762">
        <ele>975.88</ele>
        <time>2016-01-04T13:39:17Z</time>
      </trkpt>
      <trkpt lat="44.86861" lon="4.23749">
        <ele>973.47</ele>
        <time>2016-01-04T13:39:36Z</time>
      </trkpt>
      <trkpt lat="44.86863" lon="4.23732">
        <ele>979.24</ele>
        <time>2016-01-04T13:39:53Z</time>
      </trkpt>
      <trkpt lat="44.86865" lon="4.23726">
        <ele>978.28</ele>
        <time>2016-01-04T13:40:14Z</time>
      </trkpt>
      <trkpt lat="44.86868" lon="4.2372">
        <ele>976.84</ele>
        <time>2016-01-04T13:40:35Z</time>
      </trkpt>
      <trkpt lat="44.86871" lon="4.23709">
        <ele>980.2</ele>
        <time>2016-01-04T13:40:53Z</time>
      </trkpt>
      <trkpt lat="44.86873" lon="4.23702">
        <ele>984.53</ele>
        <time>2016-01-04T13:41:27Z</time>
      </trkpt>
      <trkpt lat="44.86877" lon="4.23703">
        <ele>986.93</ele>
        <time>2016-01-04T13:41:47Z</time>
      </trkpt>
      <trkpt lat="44.86877" lon="4.23705">
        <ele>986.45</ele>
        <time>2016-01-04T13:42:07Z</time>
      </trkpt>
      <trkpt lat="44.86879" lon="4.23708">
        <ele>986.45</ele>
        <time>2016-01-04T13:42:24Z</time>
      </trkpt>
      <trkpt lat="44.86881" lon="4.23707">
        <ele>986.93</ele>
        <time>2016-01-04T13:42:47Z</time>
      </trkpt>
      <trkpt lat="44.86882" lon="4.23705">
        <ele>986.93</ele>
        <time>2016-01-04T13:43:05Z</time>
      </trkpt>
      <trkpt lat="44.86882" lon="4.23701">
        <ele>987.89</ele>
        <time>2016-01-04T13:43:33Z</time>
      </trkpt>
      <trkpt lat="44.86881" lon="4.237">
        <ele>988.37</ele>
        <time>2016-01-04T13:44:03Z</time>
      </trkpt>
      <trkpt lat="44.86882" lon="4.23701">
        <ele>989.81</ele>
        <time>2016-01-04T13:44:31Z</time>
      </trkpt>
      <trkpt lat="44.86883" lon="4.23701">
        <ele>989.81</ele>
        <time>2016-01-04T13:44:50Z</time>
      </trkpt>
      <trkpt lat="44.86884" lon="4.23708">
        <ele>988.37</ele>
        <time>2016-01-04T13:45:07Z</time>
      </trkpt>
      <trkpt lat="44.86884" lon="4.2371">
        <ele>988.37</ele>
        <time>2016-01-04T13:45:27Z</time>
      </trkpt>
      <trkpt lat="44.86888" lon="4.23707">
        <ele>987.41</ele>
        <time>2016-01-04T13:45:48Z</time>
      </trkpt>
      <trkpt lat="44.8689" lon="4.23706">
        <ele>986.93</ele>
        <time>2016-01-04T13:46:15Z</time>
      </trkpt>
      <trkpt lat="44.86896" lon="4.23697">
        <ele>984.53</ele>
        <time>2016-01-04T13:46:36Z</time>
      </trkpt>
      <trkpt lat="44.869" lon="4.23684">
        <ele>983.09</ele>
        <time>2016-01-04T13:46:56Z</time>
      </trkpt>
      <trkpt lat="44.86903" lon="4.23674">
        <ele>982.12</ele>
        <time>2016-01-04T13:47:15Z</time>
      </trkpt>
      <trkpt lat="44.86905" lon="4.23662">
        <ele>982.6</ele>
        <time>2016-01-04T13:47:36Z</time>
      </trkpt>
      <trkpt lat="44.86907" lon="4.23636">
        <ele>984.53</ele>
        <time>2016-01-04T13:47:57Z</time>
      </trkpt>
      <trkpt lat="44.86911" lon="4.23624">
        <ele>987.41</ele>
        <time>2016-01-04T13:48:12Z</time>
      </trkpt>
      <trkpt lat="44.86911" lon="4.2361">
        <ele>990.3</ele>
        <time>2016-01-04T13:48:30Z</time>
      </trkpt>
      <trkpt lat="44.86915" lon="4.23595">
        <ele>996.06</ele>
        <time>2016-01-04T13:48:48Z</time>
      </trkpt>
      <trkpt lat="44.86917" lon="4.23572">
        <ele>1011.93</ele>
        <time>2016-01-04T13:49:06Z</time>
      </trkpt>
      <trkpt lat="44.86919" lon="4.23568">
        <ele>1011.93</ele>
        <time>2016-01-04T13:49:25Z</time>
      </trkpt>
      <trkpt lat="44.86919" lon="4.23563">
        <ele>1012.89</ele>
        <time>2016-01-04T13:49:46Z</time>
      </trkpt>
      <trkpt lat="44.86923" lon="4.23547">
        <ele>1011.44</ele>
        <time>2016-01-04T13:50:06Z</time>
      </trkpt>
      <trkpt lat="44.86924" lon="4.23536">
        <ele>1010</ele>
        <time>2016-01-04T13:50:27Z</time>
      </trkpt>
      <trkpt lat="44.8693" lon="4.2352">
        <ele>1010.96</ele>
        <time>2016-01-04T13:50:46Z</time>
      </trkpt>
      <trkpt lat="44.86933" lon="4.2351">
        <ele>1012.89</ele>
        <time>2016-01-04T13:51:03Z</time>
      </trkpt>
      <trkpt lat="44.86934" lon="4.23494">
        <ele>1017.21</ele>
        <time>2016-01-04T13:51:24Z</time>
      </trkpt>
      <trkpt lat="44.86938" lon="4.2348">
        <ele>1017.69</ele>
        <time>2016-01-04T13:51:41Z</time>
      </trkpt>
      <trkpt lat="44.86943" lon="4.23471">
        <ele>1021.06</ele>
        <time>2016-01-04T13:52:00Z</time>
      </trkpt>
      <trkpt lat="44.86943" lon="4.2346">
        <ele>1022.02</ele>
        <time>2016-01-04T13:52:15Z</time>
      </trkpt>
      <trkpt lat="44.86944" lon="4.23447">
        <ele>1022.5</ele>
        <time>2016-01-04T13:52:32Z</time>
      </trkpt>
      <trkpt lat="44.86947" lon="4.23433">
        <ele>1023.94</ele>
        <time>2016-01-04T13:52:52Z</time>
      </trkpt>
      <trkpt lat="44.86949" lon="4.23421">
        <ele>1026.83</ele>
        <time>2016-01-04T13:53:09Z</time>
      </trkpt>
      <trkpt lat="44.86948" lon="4.23405">
        <ele>1030.67</ele>
        <time>2016-01-04T13:53:24Z</time>
      </trkpt>
      <trkpt lat="44.86948" lon="4.23389">
        <ele>1033.07</ele>
        <time>2016-01-04T13:53:41Z</time>
      </trkpt>
      <trkpt lat="44.86947" lon="4.23377">
        <ele>1032.11</ele>
        <time>2016-01-04T13:53:58Z</time>
      </trkpt>
      <trkpt lat="44.86945" lon="4.23359">
        <ele>1037.4</ele>
        <time>2016-01-04T13:54:15Z</time>
      </trkpt>
      <trkpt lat="44.86944" lon="4.23343">
        <ele>1043.65</ele>
        <time>2016-01-04T13:54:34Z</time>
      </trkpt>
      <trkpt lat="44.86949" lon="4.23344">
        <ele>1043.65</ele>
        <time>2016-01-04T13:54:56Z</time>
      </trkpt>
      <trkpt lat="44.86951" lon="4.23344">
        <ele>1043.17</ele>
        <time>2016-01-04T13:55:17Z</time>
      </trkpt>
      <trkpt lat="44.8695" lon="4.23345">
        <ele>1043.65</ele>
        <time>2016-01-04T13:55:38Z</time>
      </trkpt>
      <trkpt lat="44.8695" lon="4.23345">
        <ele>1044.13</ele>
        <time>2016-01-04T13:56:03Z</time>
      </trkpt>
      <trkpt lat="44.86949" lon="4.23338">
        <ele>1043.65</ele>
        <time>2016-01-04T13:56:20Z</time>
      </trkpt>
      <trkpt lat="44.86947" lon="4.2332">
        <ele>1041.73</ele>
        <time>2016-01-04T13:56:38Z</time>
      </trkpt>
      <trkpt lat="44.86948" lon="4.23308">
        <ele>1042.21</ele>
        <time>2016-01-04T13:56:56Z</time>
      </trkpt>
      <trkpt lat="44.86947" lon="4.23299">
        <ele>1042.69</ele>
        <time>2016-01-04T13:57:15Z</time>
      </trkpt>
      <trkpt lat="44.86944" lon="4.23281">
        <ele>1045.09</ele>
        <time>2016-01-04T13:57:36Z</time>
      </trkpt>
      <trkpt lat="44.8694" lon="4.23263">
        <ele>1048.94</ele>
        <time>2016-01-04T13:57:51Z</time>
      </trkpt>
      <trkpt lat="44.86935" lon="4.23246">
        <ele>1060.47</ele>
        <time>2016-01-04T13:58:06Z</time>
      </trkpt>
      <trkpt lat="44.86938" lon="4.23233">
        <ele>1062.87</ele>
        <time>2016-01-04T13:58:23Z</time>
      </trkpt>
      <trkpt lat="44.86942" lon="4.23225">
        <ele>1064.8</ele>
        <time>2016-01-04T13:58:41Z</time>
      </trkpt>
      <trkpt lat="44.86944" lon="4.23206">
        <ele>1069.6</ele>
        <time>2016-01-04T13:58:59Z</time>
      </trkpt>
      <trkpt lat="44.86945" lon="4.23201">
        <ele>1072.01</ele>
        <time>2016-01-04T13:59:18Z</time>
      </trkpt>
      <trkpt lat="44.86949" lon="4.23187">
        <ele>1072.01</ele>
        <time>2016-01-04T13:59:35Z</time>
      </trkpt>
      <trkpt lat="44.86949" lon="4.2317">
        <ele>1071.53</ele>
        <time>2016-01-04T13:59:53Z</time>
      </trkpt>
      <trkpt lat="44.8695" lon="4.23165">
        <ele>1082.58</ele>
        <time>2016-01-04T14:00:12Z</time>
      </trkpt>
      <trkpt lat="44.86951" lon="4.23166">
        <ele>1081.62</ele>
        <time>2016-01-04T14:00:36Z</time>
      </trkpt>
      <trkpt lat="44.86951" lon="4.23167">
        <ele>1081.62</ele>
        <time>2016-01-04T14:01:02Z</time>
      </trkpt>
      <trkpt lat="44.86951" lon="4.23167">
        <ele>1082.58</ele>
        <time>2016-01-04T14:01:30Z</time>
      </trkpt>
      <trkpt lat="44.8695" lon="4.23167">
        <ele>1082.58</ele>
        <time>2016-01-04T14:01:51Z</time>
      </trkpt>
      <trkpt lat="44.86948" lon="4.23167">
        <ele>1082.58</ele>
        <time>2016-01-04T14:02:10Z</time>
      </trkpt>
      <trkpt lat="44.86957" lon="4.23154">
        <ele>1082.58</ele>
        <time>2016-01-04T14:02:27Z</time>
      </trkpt>
      <trkpt lat="44.8696" lon="4.23149">
        <ele>1080.66</ele>
        <time>2016-01-04T14:02:48Z</time>
      </trkpt>
      <trkpt lat="44.86967" lon="4.23137">
        <ele>1076.81</ele>
        <time>2016-01-04T14:03:09Z</time>
      </trkpt>
      <trkpt lat="44.86978" lon="4.23136">
        <ele>1072.01</ele>
        <time>2016-01-04T14:03:28Z</time>
      </trkpt>
      <trkpt lat="44.86994" lon="4.23143">
        <ele>1067.68</ele>
        <time>2016-01-04T14:03:46Z</time>
      </trkpt>
      <trkpt lat="44.87021" lon="4.23153">
        <ele>1072.01</ele>
        <time>2016-01-04T14:04:03Z</time>
      </trkpt>
      <trkpt lat="44.87025" lon="4.23157">
        <ele>1071.53</ele>
        <time>2016-01-04T14:04:08Z</time>
      </trkpt>
      <trkpt lat="44.87033" lon="4.23158">
        <ele>1071.05</ele>
        <time>2016-01-04T14:04:24Z</time>
      </trkpt>
      <trkpt lat="44.87046" lon="4.23167">
        <ele>1070.57</ele>
        <time>2016-01-04T14:04:40Z</time>
      </trkpt>
      <trkpt lat="44.87059" lon="4.23169">
        <ele>1069.6</ele>
        <time>2016-01-04T14:04:54Z</time>
      </trkpt>
      <trkpt lat="44.87064" lon="4.23178">
        <ele>1067.68</ele>
        <time>2016-01-04T14:05:08Z</time>
      </trkpt>
      <trkpt lat="44.8707" lon="4.23186">
        <ele>1068.64</ele>
        <time>2016-01-04T14:05:19Z</time>
      </trkpt>
      <trkpt lat="44.87075" lon="4.2319">
        <ele>1068.64</ele>
        <time>2016-01-04T14:05:29Z</time>
      </trkpt>
      <trkpt lat="44.87082" lon="4.23194">
        <ele>1069.12</ele>
        <time>2016-01-04T14:05:42Z</time>
      </trkpt>
      <trkpt lat="44.8709" lon="4.23199">
        <ele>1067.68</ele>
        <time>2016-01-04T14:05:56Z</time>
      </trkpt>
      <trkpt lat="44.87102" lon="4.23213">
        <ele>1066.24</ele>
        <time>2016-01-04T14:06:14Z</time>
      </trkpt>
      <trkpt lat="44.87113" lon="4.23216">
        <ele>1066.24</ele>
        <time>2016-01-04T14:06:26Z</time>
      </trkpt>
      <trkpt lat="44.87125" lon="4.23223">
        <ele>1067.2</ele>
        <time>2016-01-04T14:06:45Z</time>
      </trkpt>
      <trkpt lat="44.87139" lon="4.23231">
        <ele>1066.72</ele>
        <time>2016-01-04T14:07:01Z</time>
      </trkpt>
      <trkpt lat="44.87151" lon="4.23238">
        <ele>1068.64</ele>
        <time>2016-01-04T14:07:19Z</time>
      </trkpt>
      <trkpt lat="44.87163" lon="4.23243">
        <ele>1069.6</ele>
        <time>2016-01-04T14:07:34Z</time>
      </trkpt>
      <trkpt lat="44.87173" lon="4.2325">
        <ele>1070.57</ele>
        <time>2016-01-04T14:07:47Z</time>
      </trkpt>
      <trkpt lat="44.87185" lon="4.23261">
        <ele>1072.97</ele>
        <time>2016-01-04T14:07:59Z</time>
      </trkpt>
      <trkpt lat="44.87193" lon="4.23267">
        <ele>1070.57</ele>
        <time>2016-01-04T14:08:11Z</time>
      </trkpt>
      <trkpt lat="44.87203" lon="4.23275">
        <ele>1068.64</ele>
        <time>2016-01-04T14:08:24Z</time>
      </trkpt>
      <trkpt lat="44.87213" lon="4.23282">
        <ele>1071.05</ele>
        <time>2016-01-04T14:08:37Z</time>
      </trkpt>
      <trkpt lat="44.87224" lon="4.23294">
        <ele>1072.97</ele>
        <time>2016-01-04T14:08:54Z</time>
      </trkpt>
      <trkpt lat="44.87233" lon="4.23301">
        <ele>1074.41</ele>
        <time>2016-01-04T14:09:07Z</time>
      </trkpt>
      <trkpt lat="44.87243" lon="4.2331">
        <ele>1076.33</ele>
        <time>2016-01-04T14:09:20Z</time>
      </trkpt>
      <trkpt lat="44.87248" lon="4.23312">
        <ele>1075.85</ele>
        <time>2016-01-04T14:09:25Z</time>
      </trkpt>
      <trkpt lat="44.87253" lon="4.23322">
        <ele>1074.41</ele>
        <time>2016-01-04T14:09:36Z</time>
      </trkpt>
      <trkpt lat="44.87258" lon="4.23341">
        <ele>1077.78</ele>
        <time>2016-01-04T14:09:50Z</time>
      </trkpt>
      <trkpt lat="44.8726" lon="4.23357">
        <ele>1079.7</ele>
        <time>2016-01-04T14:10:02Z</time>
      </trkpt>
      <trkpt lat="44.8726" lon="4.23358">
        <ele>1079.7</ele>
        <time>2016-01-04T14:10:03Z</time>
      </trkpt>
      <trkpt lat="44.87261" lon="4.23364">
        <ele>1079.7</ele>
        <time>2016-01-04T14:10:08Z</time>
      </trkpt>
      <trkpt lat="44.87262" lon="4.23371">
        <ele>1080.18</ele>
        <time>2016-01-04T14:10:14Z</time>
      </trkpt>
      <trkpt lat="44.87267" lon="4.23386">
        <ele>1080.18</ele>
        <time>2016-01-04T14:10:27Z</time>
      </trkpt>
      <trkpt lat="44.87273" lon="4.23401">
        <ele>1081.62</ele>
        <time>2016-01-04T14:10:39Z</time>
      </trkpt>
      <trkpt lat="44.87279" lon="4.23416">
        <ele>1082.58</ele>
        <time>2016-01-04T14:10:50Z</time>
      </trkpt>
      <trkpt lat="44.87281" lon="4.23429">
        <ele>1083.06</ele>
        <time>2016-01-04T14:11:00Z</time>
      </trkpt>
      <trkpt lat="44.87282" lon="4.23434">
        <ele>1083.06</ele>
        <time>2016-01-04T14:11:04Z</time>
      </trkpt>
      <trkpt lat="44.87292" lon="4.23441">
        <ele>1078.74</ele>
        <time>2016-01-04T14:11:16Z</time>
      </trkpt>
      <trkpt lat="44.87295" lon="4.23444">
        <ele>1077.78</ele>
        <time>2016-01-04T14:11:19Z</time>
      </trkpt>
      <trkpt lat="44.87311" lon="4.23443">
        <ele>1071.53</ele>
        <time>2016-01-04T14:11:33Z</time>
      </trkpt>
      <trkpt lat="44.87319" lon="4.23457">
        <ele>1072.97</ele>
        <time>2016-01-04T14:11:45Z</time>
      </trkpt>
      <trkpt lat="44.87327" lon="4.23464">
        <ele>1073.45</ele>
        <time>2016-01-04T14:11:58Z</time>
      </trkpt>
      <trkpt lat="44.87336" lon="4.23476">
        <ele>1074.89</ele>
        <time>2016-01-04T14:12:11Z</time>
      </trkpt>
      <trkpt lat="44.87347" lon="4.23486">
        <ele>1074.89</ele>
        <time>2016-01-04T14:12:26Z</time>
      </trkpt>
      <trkpt lat="44.8736" lon="4.2349">
        <ele>1072.97</ele>
        <time>2016-01-04T14:12:40Z</time>
      </trkpt>
      <trkpt lat="44.87366" lon="4.23491">
        <ele>1070.57</ele>
        <time>2016-01-04T14:12:49Z</time>
      </trkpt>
      <trkpt lat="44.87379" lon="4.23497">
        <ele>1069.12</ele>
        <time>2016-01-04T14:13:03Z</time>
      </trkpt>
      <trkpt lat="44.87374" lon="4.2353">
        <ele>1080.18</ele>
        <time>2016-01-04T14:13:17Z</time>
      </trkpt>
      <trkpt lat="44.87383" lon="4.23548">
        <ele>1080.66</ele>
        <time>2016-01-04T14:13:33Z</time>
      </trkpt>
      <trkpt lat="44.87386" lon="4.2356">
        <ele>1076.81</ele>
        <time>2016-01-04T14:13:46Z</time>
      </trkpt>
      <trkpt lat="44.87388" lon="4.23575">
        <ele>1073.93</ele>
        <time>2016-01-04T14:14:00Z</time>
      </trkpt>
      <trkpt lat="44.8739" lon="4.23588">
        <ele>1071.53</ele>
        <time>2016-01-04T14:14:14Z</time>
      </trkpt>
      <trkpt lat="44.87396" lon="4.23592">
        <ele>1071.53</ele>
        <time>2016-01-04T14:14:31Z</time>
      </trkpt>
      <trkpt lat="44.87402" lon="4.23608">
        <ele>1068.64</ele>
        <time>2016-01-04T14:14:46Z</time>
      </trkpt>
      <trkpt lat="44.87412" lon="4.23621">
        <ele>1071.05</ele>
        <time>2016-01-04T14:14:59Z</time>
      </trkpt>
      <trkpt lat="44.87413" lon="4.23629">
        <ele>1071.05</ele>
        <time>2016-01-04T14:15:13Z</time>
      </trkpt>
      <trkpt lat="44.8742" lon="4.23638">
        <ele>1068.16</ele>
        <time>2016-01-04T14:15:27Z</time>
      </trkpt>
      <trkpt lat="44.87428" lon="4.23648">
        <ele>1070.57</ele>
        <time>2016-01-04T14:15:45Z</time>
      </trkpt>
      <trkpt lat="44.87434" lon="4.23659">
        <ele>1076.81</ele>
        <time>2016-01-04T14:16:05Z</time>
      </trkpt>
      <trkpt lat="44.87443" lon="4.23664">
        <ele>1078.74</ele>
        <time>2016-01-04T14:16:22Z</time>
      </trkpt>
      <trkpt lat="44.87454" lon="4.23666">
        <ele>1079.7</ele>
        <time>2016-01-04T14:16:41Z</time>
      </trkpt>
      <trkpt lat="44.87463" lon="4.23663">
        <ele>1077.29</ele>
        <time>2016-01-04T14:16:57Z</time>
      </trkpt>
      <trkpt lat="44.87476" lon="4.23664">
        <ele>1074.89</ele>
        <time>2016-01-04T14:17:13Z</time>
      </trkpt>
      <trkpt lat="44.87491" lon="4.23666">
        <ele>1077.78</ele>
        <time>2016-01-04T14:17:29Z</time>
      </trkpt>
      <trkpt lat="44.87506" lon="4.23668">
        <ele>1078.26</ele>
        <time>2016-01-04T14:17:43Z</time>
      </trkpt>
      <trkpt lat="44.87508" lon="4.23675">
        <ele>1081.14</ele>
        <time>2016-01-04T14:18:02Z</time>
      </trkpt>
      <trkpt lat="44.87508" lon="4.23683">
        <ele>1083.06</ele>
        <time>2016-01-04T14:18:21Z</time>
      </trkpt>
      <trkpt lat="44.87507" lon="4.23682">
        <ele>1083.54</ele>
        <time>2016-01-04T14:18:42Z</time>
      </trkpt>
      <trkpt lat="44.87505" lon="4.23687">
        <ele>1083.54</ele>
        <time>2016-01-04T14:19:02Z</time>
      </trkpt>
      <trkpt lat="44.87507" lon="4.23695">
        <ele>1078.74</ele>
        <time>2016-01-04T14:19:23Z</time>
      </trkpt>
      <trkpt lat="44.875" lon="4.23719">
        <ele>1071.05</ele>
        <time>2016-01-04T14:19:40Z</time>
      </trkpt>
      <trkpt lat="44.87494" lon="4.23745">
        <ele>1071.05</ele>
        <time>2016-01-04T14:19:57Z</time>
      </trkpt>
      <trkpt lat="44.87493" lon="4.23754">
        <ele>1068.16</ele>
        <time>2016-01-04T14:20:12Z</time>
      </trkpt>
      <trkpt lat="44.87493" lon="4.23773">
        <ele>1063.36</ele>
        <time>2016-01-04T14:20:29Z</time>
      </trkpt>
      <trkpt lat="44.87495" lon="4.23788">
        <ele>1061.43</ele>
        <time>2016-01-04T14:20:43Z</time>
      </trkpt>
      <trkpt lat="44.87504" lon="4.238">
        <ele>1057.59</ele>
        <time>2016-01-04T14:20:57Z</time>
      </trkpt>
      <trkpt lat="44.87502" lon="4.23826">
        <ele>1059.03</ele>
        <time>2016-01-04T14:21:10Z</time>
      </trkpt>
      <trkpt lat="44.87504" lon="4.23846">
        <ele>1058.55</ele>
        <time>2016-01-04T14:21:26Z</time>
      </trkpt>
      <trkpt lat="44.87512" lon="4.23867">
        <ele>1059.03</ele>
        <time>2016-01-04T14:21:41Z</time>
      </trkpt>
      <trkpt lat="44.87511" lon="4.23883">
        <ele>1053.26</ele>
        <time>2016-01-04T14:21:57Z</time>
      </trkpt>
      <trkpt lat="44.87505" lon="4.23903">
        <ele>1048.94</ele>
        <time>2016-01-04T14:22:14Z</time>
      </trkpt>
      <trkpt lat="44.87506" lon="4.2392">
        <ele>1045.09</ele>
        <time>2016-01-04T14:22:27Z</time>
      </trkpt>
      <trkpt lat="44.87503" lon="4.23938">
        <ele>1039.8</ele>
        <time>2016-01-04T14:22:40Z</time>
      </trkpt>
      <trkpt lat="44.87513" lon="4.23961">
        <ele>1043.65</ele>
        <time>2016-01-04T14:22:58Z</time>
      </trkpt>
      <trkpt lat="44.8752" lon="4.23977">
        <ele>1045.57</ele>
        <time>2016-01-04T14:23:13Z</time>
      </trkpt>
      <trkpt lat="44.8752" lon="4.23989">
        <ele>1045.57</ele>
        <time>2016-01-04T14:23:20Z</time>
      </trkpt>
      <trkpt lat="44.87531" lon="4.24012">
        <ele>1048.94</ele>
        <time>2016-01-04T14:23:35Z</time>
      </trkpt>
      <trkpt lat="44.87536" lon="4.24037">
        <ele>1049.42</ele>
        <time>2016-01-04T14:23:50Z</time>
      </trkpt>
      <trkpt lat="44.87545" lon="4.24049">
        <ele>1047.97</ele>
        <time>2016-01-04T14:24:11Z</time>
      </trkpt>
      <trkpt lat="44.87554" lon="4.24053">
        <ele>1047.01</ele>
        <time>2016-01-04T14:24:26Z</time>
      </trkpt>
      <trkpt lat="44.87563" lon="4.24059">
        <ele>1045.09</ele>
        <time>2016-01-04T14:24:43Z</time>
      </trkpt>
      <trkpt lat="44.87585" lon="4.24085">
        <ele>1041.25</ele>
        <time>2016-01-04T14:25:03Z</time>
      </trkpt>
      <trkpt lat="44.87588" lon="4.2409">
        <ele>1041.25</ele>
        <time>2016-01-04T14:25:19Z</time>
      </trkpt>
      <trkpt lat="44.87588" lon="4.24092">
        <ele>1041.73</ele>
        <time>2016-01-04T14:25:40Z</time>
      </trkpt>
      <trkpt lat="44.87588" lon="4.24092">
        <ele>1043.17</ele>
        <time>2016-01-04T14:26:02Z</time>
      </trkpt>
      <trkpt lat="44.87591" lon="4.241">
        <ele>1043.17</ele>
        <time>2016-01-04T14:26:22Z</time>
      </trkpt>
      <trkpt lat="44.87602" lon="4.24111">
        <ele>1044.61</ele>
        <time>2016-01-04T14:26:42Z</time>
      </trkpt>
      <trkpt lat="44.87605" lon="4.24117">
        <ele>1044.61</ele>
        <time>2016-01-04T14:26:59Z</time>
      </trkpt>
      <trkpt lat="44.87614" lon="4.24132">
        <ele>1044.61</ele>
        <time>2016-01-04T14:27:15Z</time>
      </trkpt>
      <trkpt lat="44.8762" lon="4.24145">
        <ele>1043.65</ele>
        <time>2016-01-04T14:27:32Z</time>
      </trkpt>
      <trkpt lat="44.87626" lon="4.24157">
        <ele>1042.69</ele>
        <time>2016-01-04T14:27:51Z</time>
      </trkpt>
      <trkpt lat="44.87638" lon="4.2417">
        <ele>1044.13</ele>
        <time>2016-01-04T14:28:06Z</time>
      </trkpt>
      <trkpt lat="44.87646" lon="4.24176">
        <ele>1043.17</ele>
        <time>2016-01-04T14:28:26Z</time>
      </trkpt>
      <trkpt lat="44.87656" lon="4.24184">
        <ele>1042.69</ele>
        <time>2016-01-04T14:28:44Z</time>
      </trkpt>
      <trkpt lat="44.87674" lon="4.24193">
        <ele>1042.69</ele>
        <time>2016-01-04T14:29:02Z</time>
      </trkpt>
      <trkpt lat="44.87691" lon="4.24204">
        <ele>1042.21</ele>
        <time>2016-01-04T14:29:18Z</time>
      </trkpt>
      <trkpt lat="44.877" lon="4.2421">
        <ele>1041.25</ele>
        <time>2016-01-04T14:29:34Z</time>
      </trkpt>
      <trkpt lat="44.87701" lon="4.24216">
        <ele>1039.8</ele>
        <time>2016-01-04T14:29:50Z</time>
      </trkpt>
      <trkpt lat="44.87718" lon="4.24229">
        <ele>1037.4</ele>
        <time>2016-01-04T14:30:05Z</time>
      </trkpt>
      <trkpt lat="44.8773" lon="4.24241">
        <ele>1035</ele>
        <time>2016-01-04T14:30:20Z</time>
      </trkpt>
      <trkpt lat="44.87737" lon="4.24249">
        <ele>1031.15</ele>
        <time>2016-01-04T14:30:33Z</time>
      </trkpt>
      <trkpt lat="44.8774" lon="4.24255">
        <ele>1026.83</ele>
        <time>2016-01-04T14:30:47Z</time>
      </trkpt>
      <trkpt lat="44.87745" lon="4.24276">
        <ele>1023.46</ele>
        <time>2016-01-04T14:31:02Z</time>
      </trkpt>
      <trkpt lat="44.8775" lon="4.24281">
        <ele>1022.5</ele>
        <time>2016-01-04T14:31:08Z</time>
      </trkpt>
      <trkpt lat="44.8775" lon="4.24297">
        <ele>1022.5</ele>
        <time>2016-01-04T14:31:20Z</time>
      </trkpt>
      <trkpt lat="44.87757" lon="4.24312">
        <ele>1017.69</ele>
        <time>2016-01-04T14:31:34Z</time>
      </trkpt>
      <trkpt lat="44.87757" lon="4.2433">
        <ele>1016.25</ele>
        <time>2016-01-04T14:31:48Z</time>
      </trkpt>
      <trkpt lat="44.87755" lon="4.2434">
        <ele>1014.81</ele>
        <time>2016-01-04T14:32:03Z</time>
      </trkpt>
      <trkpt lat="44.87749" lon="4.24348">
        <ele>1014.33</ele>
        <time>2016-01-04T14:32:21Z</time>
      </trkpt>
      <trkpt lat="44.87744" lon="4.2436">
        <ele>1014.81</ele>
        <time>2016-01-04T14:32:37Z</time>
      </trkpt>
      <trkpt lat="44.87743" lon="4.24363">
        <ele>1014.81</ele>
        <time>2016-01-04T14:32:53Z</time>
      </trkpt>
      <trkpt lat="44.87746" lon="4.24373">
        <ele>1013.37</ele>
        <time>2016-01-04T14:33:10Z</time>
      </trkpt>
      <trkpt lat="44.87739" lon="4.24394">
        <ele>1012.41</ele>
        <time>2016-01-04T14:33:25Z</time>
      </trkpt>
      <trkpt lat="44.87738" lon="4.24403">
        <ele>1010.48</ele>
        <time>2016-01-04T14:33:42Z</time>
      </trkpt>
      <trkpt lat="44.87735" lon="4.24416">
        <ele>1009.52</ele>
        <time>2016-01-04T14:33:56Z</time>
      </trkpt>
      <trkpt lat="44.87734" lon="4.24422">
        <ele>1008.08</ele>
        <time>2016-01-04T14:34:14Z</time>
      </trkpt>
      <trkpt lat="44.87724" lon="4.24441">
        <ele>1007.6</ele>
        <time>2016-01-04T14:34:29Z</time>
      </trkpt>
      <trkpt lat="44.87718" lon="4.2445">
        <ele>1007.6</ele>
        <time>2016-01-04T14:34:45Z</time>
      </trkpt>
      <trkpt lat="44.8771" lon="4.24463">
        <ele>1006.16</ele>
        <time>2016-01-04T14:35:01Z</time>
      </trkpt>
      <trkpt lat="44.87702" lon="4.24474">
        <ele>1005.2</ele>
        <time>2016-01-04T14:35:20Z</time>
      </trkpt>
      <trkpt lat="44.87697" lon="4.24481">
        <ele>1003.75</ele>
        <time>2016-01-04T14:35:36Z</time>
      </trkpt>
      <trkpt lat="44.87696" lon="4.24484">
        <ele>1002.79</ele>
        <time>2016-01-04T14:35:53Z</time>
      </trkpt>
      <trkpt lat="44.87687" lon="4.24495">
        <ele>1001.83</ele>
        <time>2016-01-04T14:36:06Z</time>
      </trkpt>
      <trkpt lat="44.87667" lon="4.24514">
        <ele>1001.35</ele>
        <time>2016-01-04T14:36:23Z</time>
      </trkpt>
      <trkpt lat="44.8766" lon="4.24531">
        <ele>1000.39</ele>
        <time>2016-01-04T14:36:38Z</time>
      </trkpt>
      <trkpt lat="44.87663" lon="4.24542">
        <ele>998.47</ele>
        <time>2016-01-04T14:36:54Z</time>
      </trkpt>
      <trkpt lat="44.87671" lon="4.24569">
        <ele>997.99</ele>
        <time>2016-01-04T14:37:12Z</time>
      </trkpt>
      <trkpt lat="44.87671" lon="4.24583">
        <ele>997.02</ele>
        <time>2016-01-04T14:37:24Z</time>
      </trkpt>
      <trkpt lat="44.87673" lon="4.24595">
        <ele>994.62</ele>
        <time>2016-01-04T14:37:39Z</time>
      </trkpt>
      <trkpt lat="44.87673" lon="4.24614">
        <ele>990.3</ele>
        <time>2016-01-04T14:37:55Z</time>
      </trkpt>
      <trkpt lat="44.87675" lon="4.24627">
        <ele>988.37</ele>
        <time>2016-01-04T14:38:09Z</time>
      </trkpt>
      <trkpt lat="44.87674" lon="4.2464">
        <ele>987.41</ele>
        <time>2016-01-04T14:38:25Z</time>
      </trkpt>
      <trkpt lat="44.87674" lon="4.24655">
        <ele>985.01</ele>
        <time>2016-01-04T14:38:38Z</time>
      </trkpt>
      <trkpt lat="44.87672" lon="4.24667">
        <ele>981.64</ele>
        <time>2016-01-04T14:38:52Z</time>
      </trkpt>
      <trkpt lat="44.87671" lon="4.24684">
        <ele>978.28</ele>
        <time>2016-01-04T14:39:06Z</time>
      </trkpt>
      <trkpt lat="44.87671" lon="4.24699">
        <ele>976.84</ele>
        <time>2016-01-04T14:39:22Z</time>
      </trkpt>
      <trkpt lat="44.8767" lon="4.24717">
        <ele>976.36</ele>
        <time>2016-01-04T14:39:38Z</time>
      </trkpt>
      <trkpt lat="44.87669" lon="4.2473">
        <ele>975.39</ele>
        <time>2016-01-04T14:39:51Z</time>
      </trkpt>
      <trkpt lat="44.87665" lon="4.24748">
        <ele>974.91</ele>
        <time>2016-01-04T14:40:05Z</time>
      </trkpt>
      <trkpt lat="44.87664" lon="4.24756">
        <ele>975.39</ele>
        <time>2016-01-04T14:40:21Z</time>
      </trkpt>
      <trkpt lat="44.87661" lon="4.24763">
        <ele>976.36</ele>
        <time>2016-01-04T14:40:39Z</time>
      </trkpt>
      <trkpt lat="44.8766" lon="4.24767">
        <ele>976.84</ele>
        <time>2016-01-04T14:40:57Z</time>
      </trkpt>
      <trkpt lat="44.8766" lon="4.24769">
        <ele>977.32</ele>
        <time>2016-01-04T14:41:17Z</time>
      </trkpt>
      <trkpt lat="44.8766" lon="4.24771">
        <ele>977.8</ele>
        <time>2016-01-04T14:41:40Z</time>
      </trkpt>
      <trkpt lat="44.87657" lon="4.24785">
        <ele>977.8</ele>
        <time>2016-01-04T14:41:56Z</time>
      </trkpt>
      <trkpt lat="44.87653" lon="4.24794">
        <ele>977.32</ele>
        <time>2016-01-04T14:42:12Z</time>
      </trkpt>
      <trkpt lat="44.8765" lon="4.248">
        <ele>975.39</ele>
        <time>2016-01-04T14:42:27Z</time>
      </trkpt>
      <trkpt lat="44.87647" lon="4.24807">
        <ele>973.47</ele>
        <time>2016-01-04T14:42:42Z</time>
      </trkpt>
      <trkpt lat="44.87648" lon="4.24812">
        <ele>972.51</ele>
        <time>2016-01-04T14:42:55Z</time>
      </trkpt>
      <trkpt lat="44.87643" lon="4.24823">
        <ele>971.55</ele>
        <time>2016-01-04T14:43:08Z</time>
      </trkpt>
      <trkpt lat="44.87642" lon="4.24831">
        <ele>972.51</ele>
        <time>2016-01-04T14:43:23Z</time>
      </trkpt>
      <trkpt lat="44.87642" lon="4.24838">
        <ele>971.55</ele>
        <time>2016-01-04T14:43:36Z</time>
      </trkpt>
      <trkpt lat="44.8764" lon="4.2485">
        <ele>968.18</ele>
        <time>2016-01-04T14:43:52Z</time>
      </trkpt>
      <trkpt lat="44.87635" lon="4.2486">
        <ele>966.74</ele>
        <time>2016-01-04T14:44:06Z</time>
      </trkpt>
      <trkpt lat="44.8762" lon="4.24879">
        <ele>966.74</ele>
        <time>2016-01-04T14:44:21Z</time>
      </trkpt>
      <trkpt lat="44.87615" lon="4.24882">
        <ele>965.3</ele>
        <time>2016-01-04T14:44:38Z</time>
      </trkpt>
      <trkpt lat="44.87608" lon="4.24891">
        <ele>961.46</ele>
        <time>2016-01-04T14:44:55Z</time>
      </trkpt>
      <trkpt lat="44.87604" lon="4.24902">
        <ele>958.57</ele>
        <time>2016-01-04T14:45:10Z</time>
      </trkpt>
      <trkpt lat="44.876" lon="4.24909">
        <ele>956.17</ele>
        <time>2016-01-04T14:45:23Z</time>
      </trkpt>
      <trkpt lat="44.876" lon="4.24915">
        <ele>953.77</ele>
        <time>2016-01-04T14:45:38Z</time>
      </trkpt>
      <trkpt lat="44.87599" lon="4.24917">
        <ele>954.25</ele>
        <time>2016-01-04T14:46:02Z</time>
      </trkpt>
      <trkpt lat="44.87593" lon="4.24927">
        <ele>952.8</ele>
        <time>2016-01-04T14:46:18Z</time>
      </trkpt>
      <trkpt lat="44.87583" lon="4.24932">
        <ele>949.92</ele>
        <time>2016-01-04T14:46:32Z</time>
      </trkpt>
      <trkpt lat="44.87577" lon="4.24939">
        <ele>948.48</ele>
        <time>2016-01-04T14:46:44Z</time>
      </trkpt>
      <trkpt lat="44.87568" lon="4.24952">
        <ele>944.63</ele>
        <time>2016-01-04T14:46:58Z</time>
      </trkpt>
      <trkpt lat="44.87568" lon="4.24954">
        <ele>944.63</ele>
        <time>2016-01-04T14:47:00Z</time>
      </trkpt>
      <trkpt lat="44.8756" lon="4.24968">
        <ele>942.71</ele>
        <time>2016-01-04T14:47:15Z</time>
      </trkpt>
      <trkpt lat="44.87554" lon="4.24981">
        <ele>939.83</ele>
        <time>2016-01-04T14:47:30Z</time>
      </trkpt>
      <trkpt lat="44.8755" lon="4.24989">
        <ele>936.94</ele>
        <time>2016-01-04T14:47:44Z</time>
      </trkpt>
      <trkpt lat="44.87549" lon="4.24991">
        <ele>936.46</ele>
        <time>2016-01-04T14:48:10Z</time>
      </trkpt>
      <trkpt lat="44.87549" lon="4.2499">
        <ele>936.46</ele>
        <time>2016-01-04T14:48:31Z</time>
      </trkpt>
      <trkpt lat="44.8755" lon="4.24993">
        <ele>935.5</ele>
        <time>2016-01-04T14:48:44Z</time>
      </trkpt>
      <trkpt lat="44.8755" lon="4.25001">
        <ele>934.54</ele>
        <time>2016-01-04T14:49:00Z</time>
      </trkpt>
      <trkpt lat="44.8755" lon="4.25002">
        <ele>934.06</ele>
        <time>2016-01-04T14:49:19Z</time>
      </trkpt>
      <trkpt lat="44.87535" lon="4.25058">
        <ele>932.62</ele>
        <time>2016-01-04T14:49:44Z</time>
      </trkpt>
      <trkpt lat="44.87535" lon="4.25073">
        <ele>930.21</ele>
        <time>2016-01-04T14:50:01Z</time>
      </trkpt>
      <trkpt lat="44.87533" lon="4.25089">
        <ele>926.37</ele>
        <time>2016-01-04T14:50:14Z</time>
      </trkpt>
      <trkpt lat="44.87533" lon="4.25104">
        <ele>921.56</ele>
        <time>2016-01-04T14:50:28Z</time>
      </trkpt>
      <trkpt lat="44.87536" lon="4.2512">
        <ele>918.2</ele>
        <time>2016-01-04T14:50:44Z</time>
      </trkpt>
      <trkpt lat="44.87539" lon="4.25133">
        <ele>915.31</ele>
        <time>2016-01-04T14:50:58Z</time>
      </trkpt>
      <trkpt lat="44.87539" lon="4.25146">
        <ele>912.43</ele>
        <time>2016-01-04T14:51:11Z</time>
      </trkpt>
      <trkpt lat="44.87539" lon="4.25146">
        <ele>912.43</ele>
        <time>2016-01-04T14:51:27Z</time>
      </trkpt>
      <trkpt lat="44.87539" lon="4.25165">
        <ele>908.58</ele>
        <time>2016-01-04T14:51:43Z</time>
      </trkpt>
      <trkpt lat="44.87545" lon="4.25171">
        <ele>907.62</ele>
        <time>2016-01-04T14:51:57Z</time>
      </trkpt>
      <trkpt lat="44.87541" lon="4.25186">
        <ele>904.74</ele>
        <time>2016-01-04T14:52:12Z</time>
      </trkpt>
      <trkpt lat="44.87541" lon="4.25198">
        <ele>901.85</ele>
        <time>2016-01-04T14:52:25Z</time>
      </trkpt>
      <trkpt lat="44.87544" lon="4.25213">
        <ele>896.57</ele>
        <time>2016-01-04T14:52:40Z</time>
      </trkpt>
      <trkpt lat="44.87546" lon="4.25225">
        <ele>894.16</ele>
        <time>2016-01-04T14:52:55Z</time>
      </trkpt>
      <trkpt lat="44.87551" lon="4.25229">
        <ele>896.09</ele>
        <time>2016-01-04T14:53:12Z</time>
      </trkpt>
      <trkpt lat="44.87554" lon="4.2523">
        <ele>895.12</ele>
        <time>2016-01-04T14:53:32Z</time>
      </trkpt>
      <trkpt lat="44.87556" lon="4.25231">
        <ele>895.12</ele>
        <time>2016-01-04T14:54:05Z</time>
      </trkpt>
      <trkpt lat="44.87548" lon="4.25236">
        <ele>896.09</ele>
        <time>2016-01-04T14:54:22Z</time>
      </trkpt>
      <trkpt lat="44.87548" lon="4.25242">
        <ele>895.61</ele>
        <time>2016-01-04T14:54:38Z</time>
      </trkpt>
      <trkpt lat="44.87549" lon="4.25249">
        <ele>894.64</ele>
        <time>2016-01-04T14:54:58Z</time>
      </trkpt>
      <trkpt lat="44.87541" lon="4.25259">
        <ele>893.68</ele>
        <time>2016-01-04T14:55:22Z</time>
      </trkpt>
      <trkpt lat="44.87534" lon="4.25268">
        <ele>894.64</ele>
        <time>2016-01-04T14:55:40Z</time>
      </trkpt>
      <trkpt lat="44.87526" lon="4.25272">
        <ele>895.12</ele>
        <time>2016-01-04T14:55:52Z</time>
      </trkpt>
      <trkpt lat="44.87517" lon="4.25283">
        <ele>896.09</ele>
        <time>2016-01-04T14:56:07Z</time>
      </trkpt>
      <trkpt lat="44.87511" lon="4.25291">
        <ele>895.12</ele>
        <time>2016-01-04T14:56:23Z</time>
      </trkpt>
      <trkpt lat="44.87505" lon="4.25304">
        <ele>895.12</ele>
        <time>2016-01-04T14:56:36Z</time>
      </trkpt>
      <trkpt lat="44.87496" lon="4.25318">
        <ele>896.57</ele>
        <time>2016-01-04T14:56:52Z</time>
      </trkpt>
      <trkpt lat="44.87488" lon="4.25327">
        <ele>897.05</ele>
        <time>2016-01-04T14:57:07Z</time>
      </trkpt>
      <trkpt lat="44.87482" lon="4.25335">
        <ele>897.53</ele>
        <time>2016-01-04T14:57:21Z</time>
      </trkpt>
      <trkpt lat="44.87478" lon="4.25338">
        <ele>898.49</ele>
        <time>2016-01-04T14:57:40Z</time>
      </trkpt>
      <trkpt lat="44.87474" lon="4.25339">
        <ele>898.97</ele>
        <time>2016-01-04T14:57:53Z</time>
      </trkpt>
      <trkpt lat="44.87465" lon="4.2534">
        <ele>898.49</ele>
        <time>2016-01-04T14:58:05Z</time>
      </trkpt>
      <trkpt lat="44.87457" lon="4.2534">
        <ele>897.05</ele>
        <time>2016-01-04T14:58:18Z</time>
      </trkpt>
      <trkpt lat="44.87457" lon="4.2534">
        <ele>897.05</ele>
        <time>2016-01-04T14:58:48Z</time>
      </trkpt>
      <trkpt lat="44.87453" lon="4.25339">
        <ele>896.57</ele>
        <time>2016-01-04T14:58:53Z</time>
      </trkpt>
      <trkpt lat="44.87446" lon="4.25339">
        <ele>895.61</ele>
        <time>2016-01-04T14:59:07Z</time>
      </trkpt>
      <trkpt lat="44.87438" lon="4.25336">
        <ele>894.64</ele>
        <time>2016-01-04T14:59:21Z</time>
      </trkpt>
      <trkpt lat="44.87429" lon="4.25331">
        <ele>893.68</ele>
        <time>2016-01-04T14:59:38Z</time>
      </trkpt>
      <trkpt lat="44.87424" lon="4.25326">
        <ele>894.16</ele>
        <time>2016-01-04T14:59:51Z</time>
      </trkpt>
      <trkpt lat="44.87422" lon="4.25325">
        <ele>894.16</ele>
        <time>2016-01-04T14:59:54Z</time>
      </trkpt>
      <trkpt lat="44.87415" lon="4.25312">
        <ele>892.72</ele>
        <time>2016-01-04T15:00:09Z</time>
      </trkpt>
      <trkpt lat="44.87411" lon="4.25304">
        <ele>890.8</ele>
        <time>2016-01-04T15:00:23Z</time>
      </trkpt>
      <trkpt lat="44.87408" lon="4.25295">
        <ele>889.36</ele>
        <time>2016-01-04T15:00:37Z</time>
      </trkpt>
      <trkpt lat="44.87407" lon="4.2529">
        <ele>889.84</ele>
        <time>2016-01-04T15:00:53Z</time>
      </trkpt>
      <trkpt lat="44.87402" lon="4.25281">
        <ele>887.91</ele>
        <time>2016-01-04T15:01:08Z</time>
      </trkpt>
      <trkpt lat="44.87397" lon="4.25272">
        <ele>886.47</ele>
        <time>2016-01-04T15:01:23Z</time>
      </trkpt>
      <trkpt lat="44.87393" lon="4.2526">
        <ele>886.47</ele>
        <time>2016-01-04T15:01:38Z</time>
      </trkpt>
      <trkpt lat="44.87388" lon="4.25248">
        <ele>884.55</ele>
        <time>2016-01-04T15:01:51Z</time>
      </trkpt>
      <trkpt lat="44.87384" lon="4.25234">
        <ele>882.15</ele>
        <time>2016-01-04T15:02:05Z</time>
      </trkpt>
      <trkpt lat="44.87382" lon="4.25224">
        <ele>882.15</ele>
        <time>2016-01-04T15:02:17Z</time>
      </trkpt>
      <trkpt lat="44.87381" lon="4.25216">
        <ele>881.19</ele>
        <time>2016-01-04T15:02:31Z</time>
      </trkpt>
      <trkpt lat="44.87379" lon="4.25209">
        <ele>879.74</ele>
        <time>2016-01-04T15:02:43Z</time>
      </trkpt>
      <trkpt lat="44.87376" lon="4.25201">
        <ele>879.74</ele>
        <time>2016-01-04T15:02:57Z</time>
      </trkpt>
      <trkpt lat="44.87373" lon="4.25195">
        <ele>877.34</ele>
        <time>2016-01-04T15:03:11Z</time>
      </trkpt>
      <trkpt lat="44.87372" lon="4.25192">
        <ele>875.9</ele>
        <time>2016-01-04T15:03:28Z</time>
      </trkpt>
      <trkpt lat="44.87365" lon="4.25181">
        <ele>874.46</ele>
        <time>2016-01-04T15:03:43Z</time>
      </trkpt>
      <trkpt lat="44.87362" lon="4.25182">
        <ele>872.05</ele>
        <time>2016-01-04T15:03:56Z</time>
      </trkpt>
      <trkpt lat="44.87363" lon="4.2518">
        <ele>871.09</ele>
        <time>2016-01-04T15:04:23Z</time>
      </trkpt>
      <trkpt lat="44.87365" lon="4.25182">
        <ele>870.61</ele>
        <time>2016-01-04T15:04:48Z</time>
      </trkpt>
      <trkpt lat="44.87366" lon="4.25182">
        <ele>868.69</ele>
        <time>2016-01-04T15:05:23Z</time>
      </trkpt>
      <trkpt lat="44.87367" lon="4.25182">
        <ele>868.21</ele>
        <time>2016-01-04T15:05:45Z</time>
      </trkpt>
      <trkpt lat="44.87357" lon="4.25189">
        <ele>869.17</ele>
        <time>2016-01-04T15:06:02Z</time>
      </trkpt>
      <trkpt lat="44.87348" lon="4.25201">
        <ele>869.65</ele>
        <time>2016-01-04T15:06:16Z</time>
      </trkpt>
      <trkpt lat="44.87341" lon="4.25204">
        <ele>870.13</ele>
        <time>2016-01-04T15:06:31Z</time>
      </trkpt>
      <trkpt lat="44.8733" lon="4.25209">
        <ele>871.09</ele>
        <time>2016-01-04T15:06:46Z</time>
      </trkpt>
      <trkpt lat="44.87318" lon="4.25211">
        <ele>870.61</ele>
        <time>2016-01-04T15:07:01Z</time>
      </trkpt>
      <trkpt lat="44.87306" lon="4.2522">
        <ele>869.65</ele>
        <time>2016-01-04T15:07:17Z</time>
      </trkpt>
      <trkpt lat="44.87294" lon="4.25231">
        <ele>869.17</ele>
        <time>2016-01-04T15:07:32Z</time>
      </trkpt>
      <trkpt lat="44.87282" lon="4.2524">
        <ele>867.25</ele>
        <time>2016-01-04T15:07:48Z</time>
      </trkpt>
      <trkpt lat="44.87273" lon="4.25242">
        <ele>867.73</ele>
        <time>2016-01-04T15:08:02Z</time>
      </trkpt>
      <trkpt lat="44.87268" lon="4.2524">
        <ele>868.21</ele>
        <time>2016-01-04T15:08:08Z</time>
      </trkpt>
      <trkpt lat="44.87253" lon="4.25235">
        <ele>868.69</ele>
        <time>2016-01-04T15:08:24Z</time>
      </trkpt>
      <trkpt lat="44.87243" lon="4.25236">
        <ele>867.73</ele>
        <time>2016-01-04T15:08:39Z</time>
      </trkpt>
      <trkpt lat="44.87241" lon="4.25242">
        <ele>866.77</ele>
        <time>2016-01-04T15:08:51Z</time>
      </trkpt>
      <trkpt lat="44.8724" lon="4.25243">
        <ele>865.8</ele>
        <time>2016-01-04T15:08:53Z</time>
      </trkpt>
      <trkpt lat="44.87227" lon="4.25246">
        <ele>863.88</ele>
        <time>2016-01-04T15:09:09Z</time>
      </trkpt>
      <trkpt lat="44.87218" lon="4.25248">
        <ele>863.88</ele>
        <time>2016-01-04T15:09:23Z</time>
      </trkpt>
      <trkpt lat="44.87211" lon="4.25247">
        <ele>863.4</ele>
        <time>2016-01-04T15:09:30Z</time>
      </trkpt>
      <trkpt lat="44.87206" lon="4.25241">
        <ele>863.4</ele>
        <time>2016-01-04T15:09:37Z</time>
      </trkpt>
      <trkpt lat="44.87191" lon="4.25243">
        <ele>863.4</ele>
        <time>2016-01-04T15:09:53Z</time>
      </trkpt>
      <trkpt lat="44.87175" lon="4.25243">
        <ele>863.88</ele>
        <time>2016-01-04T15:10:09Z</time>
      </trkpt>
      <trkpt lat="44.87162" lon="4.2524">
        <ele>865.32</ele>
        <time>2016-01-04T15:10:23Z</time>
      </trkpt>
      <trkpt lat="44.87153" lon="4.25237">
        <ele>864.84</ele>
        <time>2016-01-04T15:10:38Z</time>
      </trkpt>
      <trkpt lat="44.87141" lon="4.25235">
        <ele>864.84</ele>
        <time>2016-01-04T15:10:54Z</time>
      </trkpt>
      <trkpt lat="44.87132" lon="4.25232">
        <ele>864.36</ele>
        <time>2016-01-04T15:11:08Z</time>
      </trkpt>
      <trkpt lat="44.87117" lon="4.25221">
        <ele>863.4</ele>
        <time>2016-01-04T15:11:26Z</time>
      </trkpt>
      <trkpt lat="44.8711" lon="4.25212">
        <ele>863.88</ele>
        <time>2016-01-04T15:11:42Z</time>
      </trkpt>
      <trkpt lat="44.87104" lon="4.252">
        <ele>863.4</ele>
        <time>2016-01-04T15:11:57Z</time>
      </trkpt>
      <trkpt lat="44.87099" lon="4.25189">
        <ele>861</ele>
        <time>2016-01-04T15:12:15Z</time>
      </trkpt>
      <trkpt lat="44.87097" lon="4.2518">
        <ele>860.52</ele>
        <time>2016-01-04T15:12:31Z</time>
      </trkpt>
      <trkpt lat="44.87097" lon="4.25165">
        <ele>856.67</ele>
        <time>2016-01-04T15:12:46Z</time>
      </trkpt>
      <trkpt lat="44.87087" lon="4.25147">
        <ele>857.15</ele>
        <time>2016-01-04T15:13:00Z</time>
      </trkpt>
      <trkpt lat="44.87076" lon="4.25145">
        <ele>857.63</ele>
        <time>2016-01-04T15:13:22Z</time>
      </trkpt>
      <trkpt lat="44.87065" lon="4.25143">
        <ele>859.08</ele>
        <time>2016-01-04T15:13:37Z</time>
      </trkpt>
      <trkpt lat="44.8706" lon="4.25136">
        <ele>857.63</ele>
        <time>2016-01-04T15:13:50Z</time>
      </trkpt>
      <trkpt lat="44.87049" lon="4.25127">
        <ele>857.15</ele>
        <time>2016-01-04T15:14:05Z</time>
      </trkpt>
      <trkpt lat="44.87044" lon="4.25122">
        <ele>855.71</ele>
        <time>2016-01-04T15:14:17Z</time>
      </trkpt>
      <trkpt lat="44.87038" lon="4.25112">
        <ele>857.15</ele>
        <time>2016-01-04T15:14:30Z</time>
      </trkpt>
      <trkpt lat="44.87034" lon="4.251">
        <ele>857.15</ele>
        <time>2016-01-04T15:14:45Z</time>
      </trkpt>
      <trkpt lat="44.87028" lon="4.2509">
        <ele>858.59</ele>
        <time>2016-01-04T15:14:59Z</time>
      </trkpt>
      <trkpt lat="44.87025" lon="4.25079">
        <ele>856.67</ele>
        <time>2016-01-04T15:15:12Z</time>
      </trkpt>
      <trkpt lat="44.87021" lon="4.25074">
        <ele>854.27</ele>
        <time>2016-01-04T15:15:24Z</time>
      </trkpt>
      <trkpt lat="44.87016" lon="4.25071">
        <ele>852.35</ele>
        <time>2016-01-04T15:15:37Z</time>
      </trkpt>
      <trkpt lat="44.87011" lon="4.25061">
        <ele>851.87</ele>
        <time>2016-01-04T15:15:51Z</time>
      </trkpt>
      <trkpt lat="44.87006" lon="4.2505">
        <ele>850.9</ele>
        <time>2016-01-04T15:16:07Z</time>
      </trkpt>
      <trkpt lat="44.86997" lon="4.25031">
        <ele>850.42</ele>
        <time>2016-01-04T15:16:24Z</time>
      </trkpt>
      <trkpt lat="44.86989" lon="4.25021">
        <ele>848.02</ele>
        <time>2016-01-04T15:16:39Z</time>
      </trkpt>
      <trkpt lat="44.86983" lon="4.25004">
        <ele>846.58</ele>
        <time>2016-01-04T15:16:55Z</time>
      </trkpt>
      <trkpt lat="44.86978" lon="4.25">
        <ele>845.62</ele>
        <time>2016-01-04T15:17:13Z</time>
      </trkpt>
      <trkpt lat="44.86972" lon="4.24995">
        <ele>842.73</ele>
        <time>2016-01-04T15:17:25Z</time>
      </trkpt>
      <trkpt lat="44.86966" lon="4.24987">
        <ele>839.85</ele>
        <time>2016-01-04T15:17:41Z</time>
      </trkpt>
      <trkpt lat="44.86959" lon="4.24978">
        <ele>836.48</ele>
        <time>2016-01-04T15:17:55Z</time>
      </trkpt>
      <trkpt lat="44.86951" lon="4.24963">
        <ele>836</ele>
        <time>2016-01-04T15:18:05Z</time>
      </trkpt>
      <trkpt lat="44.86941" lon="4.24955">
        <ele>833.12</ele>
        <time>2016-01-04T15:18:21Z</time>
      </trkpt>
      <trkpt lat="44.8694" lon="4.24953">
        <ele>832.16</ele>
        <time>2016-01-04T15:18:41Z</time>
      </trkpt>
      <trkpt lat="44.86925" lon="4.24948">
        <ele>832.64</ele>
        <time>2016-01-04T15:18:56Z</time>
      </trkpt>
      <trkpt lat="44.86915" lon="4.24944">
        <ele>831.68</ele>
        <time>2016-01-04T15:19:09Z</time>
      </trkpt>
      <trkpt lat="44.86901" lon="4.24943">
        <ele>830.24</ele>
        <time>2016-01-04T15:19:24Z</time>
      </trkpt>
      <trkpt lat="44.86886" lon="4.24942">
        <ele>830.72</ele>
        <time>2016-01-04T15:19:41Z</time>
      </trkpt>
      <trkpt lat="44.86875" lon="4.24937">
        <ele>830.24</ele>
        <time>2016-01-04T15:19:56Z</time>
      </trkpt>
      <trkpt lat="44.86866" lon="4.24947">
        <ele>830.24</ele>
        <time>2016-01-04T15:20:12Z</time>
      </trkpt>
      <trkpt lat="44.86865" lon="4.24962">
        <ele>830.24</ele>
        <time>2016-01-04T15:20:25Z</time>
      </trkpt>
      <trkpt lat="44.86863" lon="4.24972">
        <ele>831.68</ele>
        <time>2016-01-04T15:20:39Z</time>
      </trkpt>
      <trkpt lat="44.86861" lon="4.24983">
        <ele>832.16</ele>
        <time>2016-01-04T15:20:53Z</time>
      </trkpt>
      <trkpt lat="44.8686" lon="4.24988">
        <ele>833.12</ele>
        <time>2016-01-04T15:21:10Z</time>
      </trkpt>
      <trkpt lat="44.86857" lon="4.24999">
        <ele>834.56</ele>
        <time>2016-01-04T15:21:24Z</time>
      </trkpt>
      <trkpt lat="44.86857" lon="4.25002">
        <ele>835.52</ele>
        <time>2016-01-04T15:21:46Z</time>
      </trkpt>
      <trkpt lat="44.86855" lon="4.25008">
        <ele>836.48</ele>
        <time>2016-01-04T15:21:59Z</time>
      </trkpt>
      <trkpt lat="44.86853" lon="4.25021">
        <ele>836.48</ele>
        <time>2016-01-04T15:22:14Z</time>
      </trkpt>
      <trkpt lat="44.86853" lon="4.25031">
        <ele>836.96</ele>
        <time>2016-01-04T15:22:27Z</time>
      </trkpt>
      <trkpt lat="44.86856" lon="4.25045">
        <ele>838.89</ele>
        <time>2016-01-04T15:22:42Z</time>
      </trkpt>
      <trkpt lat="44.86856" lon="4.25062">
        <ele>842.73</ele>
        <time>2016-01-04T15:22:58Z</time>
      </trkpt>
      <trkpt lat="44.86854" lon="4.2507">
        <ele>844.18</ele>
        <time>2016-01-04T15:23:11Z</time>
      </trkpt>
      <trkpt lat="44.86852" lon="4.25075">
        <ele>844.18</ele>
        <time>2016-01-04T15:23:25Z</time>
      </trkpt>
      <trkpt lat="44.86852" lon="4.25077">
        <ele>844.18</ele>
        <time>2016-01-04T15:23:44Z</time>
      </trkpt>
      <trkpt lat="44.86851" lon="4.25078">
        <ele>843.69</ele>
        <time>2016-01-04T15:24:00Z</time>
      </trkpt>
      <trkpt lat="44.86851" lon="4.25078">
        <ele>844.18</ele>
        <time>2016-01-04T15:24:24Z</time>
      </trkpt>
      <trkpt lat="44.8685" lon="4.25078">
        <ele>846.1</ele>
        <time>2016-01-04T15:24:46Z</time>
      </trkpt>
      <trkpt lat="44.8685" lon="4.25078">
        <ele>846.1</ele>
        <time>2016-01-04T15:25:09Z</time>
      </trkpt>
      <trkpt lat="44.8685" lon="4.25078">
        <ele>846.58</ele>
        <time>2016-01-04T15:25:37Z</time>
      </trkpt>
    </trkseg>
  </trk>
</gpx>